sensor_id;sensor_type;location;lat;lon;timestamp;temperature;humidity
30174;DHT22;16985;50.814;8.530;2022-08-14T00:01:00;20.70;74.70
30174;DHT22;16985;50.814;8.530;2022-08-14T00:03:28;20.60;74.50
30174;DHT22;16985;50.814;8.530;2022-08-14T00:05:57;20.70;74.40
30174;DHT22;16985;50.814;8.530;2022-08-14T00:08:24;20.60;75.00
30174;DHT22;16985;50.814;8.530;2022-08-14T00:10:51;20.60;74.60
30174;DHT22;16985;50.814;8.530;2022-08-14T00:13:18;20.60;74.90
30174;DHT22;16985;50.814;8.530;2022-08-14T00:15:46;20.50;74.80
30174;DHT22;16985;50.814;8.530;2022-08-14T00:18:17;20.40;75.00
30174;DHT22;16985;50.814;8.530;2022-08-14T00:20:44;20.40;75.10
30174;DHT22;16985;50.814;8.530;2022-08-14T00:23:12;20.30;76.00
30174;DHT22;16985;50.814;8.530;2022-08-14T00:25:39;20.30;75.70
30174;DHT22;16985;50.814;8.530;2022-08-14T00:28:08;20.20;76.70
30174;DHT22;16985;50.814;8.530;2022-08-14T00:30:35;20.20;76.30
30174;DHT22;16985;50.814;8.530;2022-08-14T00:33:01;20.10;76.30
30174;DHT22;16985;50.814;8.530;2022-08-14T00:35:28;20.10;76.70
30174;DHT22;16985;50.814;8.530;2022-08-14T00:37:53;20.00;76.50
30174;DHT22;16985;50.814;8.530;2022-08-14T00:40:20;20.00;76.80
30174;DHT22;16985;50.814;8.530;2022-08-14T00:42:46;20.00;77.10
30174;DHT22;16985;50.814;8.530;2022-08-14T00:45:14;19.90;77.70
30174;DHT22;16985;50.814;8.530;2022-08-14T00:47:41;19.80;78.50
30174;DHT22;16985;50.814;8.530;2022-08-14T00:50:10;19.80;78.00
30174;DHT22;16985;50.814;8.530;2022-08-14T00:52:38;19.80;78.30
30174;DHT22;16985;50.814;8.530;2022-08-14T00:55:06;19.80;78.40
30174;DHT22;16985;50.814;8.530;2022-08-14T00:57:35;19.70;78.40
30174;DHT22;16985;50.814;8.530;2022-08-14T01:00:23;19.70;78.70
30174;DHT22;16985;50.814;8.530;2022-08-14T01:02:49;19.60;78.80
30174;DHT22;16985;50.814;8.530;2022-08-14T01:05:17;19.60;79.00
30174;DHT22;16985;50.814;8.530;2022-08-14T01:07:53;19.50;79.00
30174;DHT22;16985;50.814;8.530;2022-08-14T01:10:30;19.50;79.50
30174;DHT22;16985;50.814;8.530;2022-08-14T01:13:20;19.50;80.00
30174;DHT22;16985;50.814;8.530;2022-08-14T01:15:50;19.40;79.90
30174;DHT22;16985;50.814;8.530;2022-08-14T01:18:28;19.40;80.30
30174;DHT22;16985;50.814;8.530;2022-08-14T01:21:14;19.40;80.40
30174;DHT22;16985;50.814;8.530;2022-08-14T01:23:53;19.30;80.50
30174;DHT22;16985;50.814;8.530;2022-08-14T01:26:43;19.20;81.00
30174;DHT22;16985;50.814;8.530;2022-08-14T01:29:11;19.20;80.90
30174;DHT22;16985;50.814;8.530;2022-08-14T01:31:38;19.20;81.00
30174;DHT22;16985;50.814;8.530;2022-08-14T01:34:30;19.20;80.80
30174;DHT22;16985;50.814;8.530;2022-08-14T01:36:58;19.10;80.90
30174;DHT22;16985;50.814;8.530;2022-08-14T01:39:25;19.10;81.30
30174;DHT22;16985;50.814;8.530;2022-08-14T01:41:51;19.10;81.20
30174;DHT22;16985;50.814;8.530;2022-08-14T01:44:22;19.00;81.10
30174;DHT22;16985;50.814;8.530;2022-08-14T01:46:50;19.00;81.40
30174;DHT22;16985;50.814;8.530;2022-08-14T01:49:21;19.00;81.30
30174;DHT22;16985;50.814;8.530;2022-08-14T01:51:47;18.90;81.60
30174;DHT22;16985;50.814;8.530;2022-08-14T01:54:22;18.90;81.70
30174;DHT22;16985;50.814;8.530;2022-08-14T01:56:50;18.90;82.20
30174;DHT22;16985;50.814;8.530;2022-08-14T02:01:45;18.80;82.60
30174;DHT22;16985;50.814;8.530;2022-08-14T02:04:12;18.70;82.90
30174;DHT22;16985;50.814;8.530;2022-08-14T02:06:37;18.70;82.80
30174;DHT22;16985;50.814;8.530;2022-08-14T02:09:04;18.70;82.90
30174;DHT22;16985;50.814;8.530;2022-08-14T02:11:31;18.50;83.60
30174;DHT22;16985;50.814;8.530;2022-08-14T02:14:06;18.60;83.70
30174;DHT22;16985;50.814;8.530;2022-08-14T02:16:37;18.50;83.80
30174;DHT22;16985;50.814;8.530;2022-08-14T02:19:08;18.50;84.00
30174;DHT22;16985;50.814;8.530;2022-08-14T02:21:36;18.50;84.60
30174;DHT22;16985;50.814;8.530;2022-08-14T02:24:03;18.40;85.20
30174;DHT22;16985;50.814;8.530;2022-08-14T02:26:34;18.40;85.50
30174;DHT22;16985;50.814;8.530;2022-08-14T02:29:04;18.40;84.80
30174;DHT22;16985;50.814;8.530;2022-08-14T02:31:51;18.40;84.80
30174;DHT22;16985;50.814;8.530;2022-08-14T02:34:24;18.30;84.80
30174;DHT22;16985;50.814;8.530;2022-08-14T02:36:56;18.30;85.10
30174;DHT22;16985;50.814;8.530;2022-08-14T02:39:24;18.30;85.50
30174;DHT22;16985;50.814;8.530;2022-08-14T02:41:51;18.20;85.10
30174;DHT22;16985;50.814;8.530;2022-08-14T02:44:17;18.20;85.30
30174;DHT22;16985;50.814;8.530;2022-08-14T02:46:45;18.20;85.70
30174;DHT22;16985;50.814;8.530;2022-08-14T02:49:11;18.20;85.70
30174;DHT22;16985;50.814;8.530;2022-08-14T02:51:38;18.10;85.80
30174;DHT22;16985;50.814;8.530;2022-08-14T02:54:08;18.10;85.90
30174;DHT22;16985;50.814;8.530;2022-08-14T02:56:35;18.00;85.90
30174;DHT22;16985;50.814;8.530;2022-08-14T02:59:03;18.00;86.10
30174;DHT22;16985;50.814;8.530;2022-08-14T03:01:31;18.00;86.00
30174;DHT22;16985;50.814;8.530;2022-08-14T03:03:57;18.00;86.40
30174;DHT22;16985;50.814;8.530;2022-08-14T03:06:23;17.90;86.20
30174;DHT22;16985;50.814;8.530;2022-08-14T03:08:51;17.90;86.40
30174;DHT22;16985;50.814;8.530;2022-08-14T03:11:18;17.90;86.60
30174;DHT22;16985;50.814;8.530;2022-08-14T03:13:47;17.80;86.70
30174;DHT22;16985;50.814;8.530;2022-08-14T03:16:18;17.80;86.60
30174;DHT22;16985;50.814;8.530;2022-08-14T03:18:46;17.80;86.80
30174;DHT22;16985;50.814;8.530;2022-08-14T03:21:16;17.70;87.10
30174;DHT22;16985;50.814;8.530;2022-08-14T03:23:46;17.70;87.10
30174;DHT22;16985;50.814;8.530;2022-08-14T03:26:16;17.70;87.30
30174;DHT22;16985;50.814;8.530;2022-08-14T03:28:45;17.70;87.50
30174;DHT22;16985;50.814;8.530;2022-08-14T03:31:13;17.60;87.70
30174;DHT22;16985;50.814;8.530;2022-08-14T03:33:40;17.60;87.40
30174;DHT22;16985;50.814;8.530;2022-08-14T03:36:08;17.60;87.70
30174;DHT22;16985;50.814;8.530;2022-08-14T03:38:40;17.60;87.70
30174;DHT22;16985;50.814;8.530;2022-08-14T03:41:10;17.50;88.10
30174;DHT22;16985;50.814;8.530;2022-08-14T03:43:40;17.50;87.60
30174;DHT22;16985;50.814;8.530;2022-08-14T03:46:10;17.50;87.30
30174;DHT22;16985;50.814;8.530;2022-08-14T03:48:38;17.50;87.00
30174;DHT22;16985;50.814;8.530;2022-08-14T03:51:06;17.50;87.50
30174;DHT22;16985;50.814;8.530;2022-08-14T03:53:38;17.40;88.10
30174;DHT22;16985;50.814;8.530;2022-08-14T03:56:11;17.40;88.00
30174;DHT22;16985;50.814;8.530;2022-08-14T03:58:50;17.30;88.90
30174;DHT22;16985;50.814;8.530;2022-08-14T04:01:19;17.30;89.20
30174;DHT22;16985;50.814;8.530;2022-08-14T04:03:47;17.30;89.30
30174;DHT22;16985;50.814;8.530;2022-08-14T04:06:14;17.20;89.40
30174;DHT22;16985;50.814;8.530;2022-08-14T04:08:41;17.20;89.70
30174;DHT22;16985;50.814;8.530;2022-08-14T04:11:09;17.20;89.90
30174;DHT22;16985;50.814;8.530;2022-08-14T04:13:40;17.20;90.10
30174;DHT22;16985;50.814;8.530;2022-08-14T04:16:09;17.20;89.80
30174;DHT22;16985;50.814;8.530;2022-08-14T04:18:41;17.20;89.70
30174;DHT22;16985;50.814;8.530;2022-08-14T04:21:11;17.10;90.00
30174;DHT22;16985;50.814;8.530;2022-08-14T04:23:39;17.10;89.90
30174;DHT22;16985;50.814;8.530;2022-08-14T04:26:07;17.10;90.20
30174;DHT22;16985;50.814;8.530;2022-08-14T04:28:36;17.10;90.40
30174;DHT22;16985;50.814;8.530;2022-08-14T04:31:03;17.00;90.40
30174;DHT22;16985;50.814;8.530;2022-08-14T04:33:31;17.10;90.50
30174;DHT22;16985;50.814;8.530;2022-08-14T04:35:57;17.10;90.50
30174;DHT22;16985;50.814;8.530;2022-08-14T04:38:24;17.00;90.40
30174;DHT22;16985;50.814;8.530;2022-08-14T04:41:08;17.00;90.50
30174;DHT22;16985;50.814;8.530;2022-08-14T04:43:53;17.00;90.60
30174;DHT22;16985;50.814;8.530;2022-08-14T04:46:21;17.00;90.80
30174;DHT22;16985;50.814;8.530;2022-08-14T04:48:48;17.00;90.40
30174;DHT22;16985;50.814;8.530;2022-08-14T04:51:17;16.90;90.80
30174;DHT22;16985;50.814;8.530;2022-08-14T04:53:47;17.00;91.20
30174;DHT22;16985;50.814;8.530;2022-08-14T04:56:20;16.90;91.50
30174;DHT22;16985;50.814;8.530;2022-08-14T04:58:53;16.90;91.60
30174;DHT22;16985;50.814;8.530;2022-08-14T05:01:25;16.90;91.60
30174;DHT22;16985;50.814;8.530;2022-08-14T05:03:52;16.90;91.60
30174;DHT22;16985;50.814;8.530;2022-08-14T05:06:19;16.90;91.60
30174;DHT22;16985;50.814;8.530;2022-08-14T05:08:46;16.90;91.70
30174;DHT22;16985;50.814;8.530;2022-08-14T05:11:12;17.00;92.00
30174;DHT22;16985;50.814;8.530;2022-08-14T05:13:38;17.00;92.40
30174;DHT22;16985;50.814;8.530;2022-08-14T05:16:05;17.00;92.30
30174;DHT22;16985;50.814;8.530;2022-08-14T05:18:36;17.00;92.20
30174;DHT22;16985;50.814;8.530;2022-08-14T05:21:04;17.00;92.20
30174;DHT22;16985;50.814;8.530;2022-08-14T05:23:34;17.00;92.30
30174;DHT22;16985;50.814;8.530;2022-08-14T05:26:03;17.10;92.40
30174;DHT22;16985;50.814;8.530;2022-08-14T05:28:40;17.10;92.50
30174;DHT22;16985;50.814;8.530;2022-08-14T05:31:12;17.10;92.90
30174;DHT22;16985;50.814;8.530;2022-08-14T05:33:41;17.10;93.10
30174;DHT22;16985;50.814;8.530;2022-08-14T05:36:09;17.20;92.60
30174;DHT22;16985;50.814;8.530;2022-08-14T05:38:41;17.20;92.80
30174;DHT22;16985;50.814;8.530;2022-08-14T05:41:17;17.20;92.30
30174;DHT22;16985;50.814;8.530;2022-08-14T05:43:45;17.30;92.50
30174;DHT22;16985;50.814;8.530;2022-08-14T05:46:17;17.30;92.30
30174;DHT22;16985;50.814;8.530;2022-08-14T05:48:47;17.40;92.10
30174;DHT22;16985;50.814;8.530;2022-08-14T05:51:14;17.40;92.40
30174;DHT22;16985;50.814;8.530;2022-08-14T05:53:39;17.40;92.40
30174;DHT22;16985;50.814;8.530;2022-08-14T05:56:05;17.50;92.40
30174;DHT22;16985;50.814;8.530;2022-08-14T05:58:31;17.50;92.30
30174;DHT22;16985;50.814;8.530;2022-08-14T06:00:57;17.50;92.30
30174;DHT22;16985;50.814;8.530;2022-08-14T06:03:23;17.60;92.30
30174;DHT22;16985;50.814;8.530;2022-08-14T06:05:51;17.60;92.50
30174;DHT22;16985;50.814;8.530;2022-08-14T06:08:27;17.60;92.20
30174;DHT22;16985;50.814;8.530;2022-08-14T06:10:57;17.70;92.00
30174;DHT22;16985;50.814;8.530;2022-08-14T06:13:28;17.70;92.20
30174;DHT22;16985;50.814;8.530;2022-08-14T06:15:55;17.80;92.30
30174;DHT22;16985;50.814;8.530;2022-08-14T06:18:20;17.80;92.60
30174;DHT22;16985;50.814;8.530;2022-08-14T06:20:46;17.90;93.40
30174;DHT22;16985;50.814;8.530;2022-08-14T06:23:12;17.90;92.90
30174;DHT22;16985;50.814;8.530;2022-08-14T06:25:38;18.00;93.10
30174;DHT22;16985;50.814;8.530;2022-08-14T06:28:04;18.00;93.60
30174;DHT22;16985;50.814;8.530;2022-08-14T06:30:32;18.10;94.00
30174;DHT22;16985;50.814;8.530;2022-08-14T06:32:59;18.20;94.00
30174;DHT22;16985;50.814;8.530;2022-08-14T06:35:25;18.20;94.70
30174;DHT22;16985;50.814;8.530;2022-08-14T06:37:56;18.30;95.80
30174;DHT22;16985;50.814;8.530;2022-08-14T06:40:29;18.30;96.40
30174;DHT22;16985;50.814;8.530;2022-08-14T06:42:58;18.40;96.20
30174;DHT22;16985;50.814;8.530;2022-08-14T06:45:25;18.50;96.50
30174;DHT22;16985;50.814;8.530;2022-08-14T06:47:52;18.50;96.60
30174;DHT22;16985;50.814;8.530;2022-08-14T06:50:19;18.60;96.70
30174;DHT22;16985;50.814;8.530;2022-08-14T06:52:47;18.70;97.30
30174;DHT22;16985;50.814;8.530;2022-08-14T06:55:14;18.70;96.80
30174;DHT22;16985;50.814;8.530;2022-08-14T06:57:44;18.80;96.60
30174;DHT22;16985;50.814;8.530;2022-08-14T07:00:14;18.90;96.70
30174;DHT22;16985;50.814;8.530;2022-08-14T07:02:45;19.00;96.50
30174;DHT22;16985;50.814;8.530;2022-08-14T07:05:30;19.00;96.50
30174;DHT22;16985;50.814;8.530;2022-08-14T07:08:28;19.20;97.00
30174;DHT22;16985;50.814;8.530;2022-08-14T07:10:57;19.10;96.20
30174;DHT22;16985;50.814;8.530;2022-08-14T07:13:24;19.30;96.00
30174;DHT22;16985;50.814;8.530;2022-08-14T07:15:54;19.40;96.10
30174;DHT22;16985;50.814;8.530;2022-08-14T07:18:22;19.50;95.70
30174;DHT22;16985;50.814;8.530;2022-08-14T07:20:49;19.60;95.50
30174;DHT22;16985;50.814;8.530;2022-08-14T07:23:16;19.70;95.20
30174;DHT22;16985;50.814;8.530;2022-08-14T07:25:43;19.80;94.80
30174;DHT22;16985;50.814;8.530;2022-08-14T07:28:14;19.90;94.60
30174;DHT22;16985;50.814;8.530;2022-08-14T07:30:44;19.90;94.50
30174;DHT22;16985;50.814;8.530;2022-08-14T07:33:11;20.10;94.30
30174;DHT22;16985;50.814;8.530;2022-08-14T07:35:39;20.20;94.20
30174;DHT22;16985;50.814;8.530;2022-08-14T07:38:06;20.30;94.10
30174;DHT22;16985;50.814;8.530;2022-08-14T07:40:32;20.50;93.80
30174;DHT22;16985;50.814;8.530;2022-08-14T07:42:59;20.60;93.50
30174;DHT22;16985;50.814;8.530;2022-08-14T07:45:26;20.70;93.20
30174;DHT22;16985;50.814;8.530;2022-08-14T07:47:52;20.80;92.80
30174;DHT22;16985;50.814;8.530;2022-08-14T07:50:20;20.80;92.50
30174;DHT22;16985;50.814;8.530;2022-08-14T07:52:47;21.00;92.40
30174;DHT22;16985;50.814;8.530;2022-08-14T07:55:15;21.10;92.00
30174;DHT22;16985;50.814;8.530;2022-08-14T07:57:43;21.30;91.40
30174;DHT22;16985;50.814;8.530;2022-08-14T08:00:16;21.40;91.10
30174;DHT22;16985;50.814;8.530;2022-08-14T08:02:46;21.50;90.80
30174;DHT22;16985;50.814;8.530;2022-08-14T08:05:14;21.70;90.80
30174;DHT22;16985;50.814;8.530;2022-08-14T08:07:44;21.80;90.50
30174;DHT22;16985;50.814;8.530;2022-08-14T08:10:23;22.00;90.20
30174;DHT22;16985;50.814;8.530;2022-08-14T08:12:57;22.10;89.70
30174;DHT22;16985;50.814;8.530;2022-08-14T08:15:31;22.20;88.70
30174;DHT22;16985;50.814;8.530;2022-08-14T08:17:59;22.40;88.40
30174;DHT22;16985;50.814;8.530;2022-08-14T08:20:31;22.50;87.70
30174;DHT22;16985;50.814;8.530;2022-08-14T08:23:00;22.60;87.00
30174;DHT22;16985;50.814;8.530;2022-08-14T08:25:29;22.70;86.30
30174;DHT22;16985;50.814;8.530;2022-08-14T08:28:12;22.90;85.80
30174;DHT22;16985;50.814;8.530;2022-08-14T08:30:50;23.00;85.30
30174;DHT22;16985;50.814;8.530;2022-08-14T08:33:23;23.10;84.60
30174;DHT22;16985;50.814;8.530;2022-08-14T08:35:59;23.30;84.00
30174;DHT22;16985;50.814;8.530;2022-08-14T08:38:27;23.40;83.50
30174;DHT22;16985;50.814;8.530;2022-08-14T08:40:56;23.60;83.00
30174;DHT22;16985;50.814;8.530;2022-08-14T08:43:28;23.70;82.40
30174;DHT22;16985;50.814;8.530;2022-08-14T08:48:27;23.90;80.20
30174;DHT22;16985;50.814;8.530;2022-08-14T08:51:20;24.10;79.40
30174;DHT22;16985;50.814;8.530;2022-08-14T08:53:58;24.20;78.70
30174;DHT22;16985;50.814;8.530;2022-08-14T08:59:18;24.50;78.10
30174;DHT22;16985;50.814;8.530;2022-08-14T09:04:16;24.80;77.20
30174;DHT22;16985;50.814;8.530;2022-08-14T09:06:44;24.90;76.50
30174;DHT22;16985;50.814;8.530;2022-08-14T09:09:25;25.00;76.00
30174;DHT22;16985;50.814;8.530;2022-08-14T09:11:53;25.20;75.90
30174;DHT22;16985;50.814;8.530;2022-08-14T09:14:21;25.30;74.10
30174;DHT22;16985;50.814;8.530;2022-08-14T09:16:48;25.50;73.70
30174;DHT22;16985;50.814;8.530;2022-08-14T09:19:15;25.60;73.30
30174;DHT22;16985;50.814;8.530;2022-08-14T09:21:41;25.70;73.00
30174;DHT22;16985;50.814;8.530;2022-08-14T09:24:07;25.80;72.80
30174;DHT22;16985;50.814;8.530;2022-08-14T09:26:35;26.00;72.40
30174;DHT22;16985;50.814;8.530;2022-08-14T09:29:02;26.10;72.00
30174;DHT22;16985;50.814;8.530;2022-08-14T09:31:29;26.30;71.20
30174;DHT22;16985;50.814;8.530;2022-08-14T09:34:06;26.40;70.60
30174;DHT22;16985;50.814;8.530;2022-08-14T09:36:51;26.50;69.20
30174;DHT22;16985;50.814;8.530;2022-08-14T09:39:42;26.60;68.70
30174;DHT22;16985;50.814;8.530;2022-08-14T09:45:27;27.00;67.90
30174;DHT22;16985;50.814;8.530;2022-08-14T09:47:57;27.10;67.30
30174;DHT22;16985;50.814;8.530;2022-08-14T09:55:23;27.40;66.00
30174;DHT22;16985;50.814;8.530;2022-08-14T09:57:50;27.60;65.70
30174;DHT22;16985;50.814;8.530;2022-08-14T10:00:18;27.70;65.10
30174;DHT22;16985;50.814;8.530;2022-08-14T10:02:52;27.80;64.60
30174;DHT22;16985;50.814;8.530;2022-08-14T10:05:31;28.00;63.60
30174;DHT22;16985;50.814;8.530;2022-08-14T10:07:59;28.10;62.90
30174;DHT22;16985;50.814;8.530;2022-08-14T10:10:36;28.20;62.40
30174;DHT22;16985;50.814;8.530;2022-08-14T10:13:19;28.40;61.20
30174;DHT22;16985;50.814;8.530;2022-08-14T10:15:46;28.50;60.10
30174;DHT22;16985;50.814;8.530;2022-08-14T10:18:17;28.70;60.10
30174;DHT22;16985;50.814;8.530;2022-08-14T10:21:00;28.80;60.30
30174;DHT22;16985;50.814;8.530;2022-08-14T10:23:42;28.90;60.30
30174;DHT22;16985;50.814;8.530;2022-08-14T10:26:16;29.00;60.10
30174;DHT22;16985;50.814;8.530;2022-08-14T10:28:48;29.10;59.40
30174;DHT22;16985;50.814;8.530;2022-08-14T10:31:25;29.30;59.40
30174;DHT22;16985;50.814;8.530;2022-08-14T10:34:10;29.50;59.10
30174;DHT22;16985;50.814;8.530;2022-08-14T10:36:42;29.60;58.90
30174;DHT22;16985;50.814;8.530;2022-08-14T10:39:21;29.80;58.80
30174;DHT22;16985;50.814;8.530;2022-08-14T10:42:00;29.90;58.60
30174;DHT22;16985;50.814;8.530;2022-08-14T10:44:47;30.00;58.20
30174;DHT22;16985;50.814;8.530;2022-08-14T10:47:16;30.20;57.80
30174;DHT22;16985;50.814;8.530;2022-08-14T10:50:04;30.30;57.00
30174;DHT22;16985;50.814;8.530;2022-08-14T10:52:31;30.40;56.80
30174;DHT22;16985;50.814;8.530;2022-08-14T10:55:14;30.50;56.10
30174;DHT22;16985;50.814;8.530;2022-08-14T10:57:52;30.70;55.30
30174;DHT22;16985;50.814;8.530;2022-08-14T11:00:21;30.80;55.20
30174;DHT22;16985;50.814;8.530;2022-08-14T11:03:02;30.90;55.00
30174;DHT22;16985;50.814;8.530;2022-08-14T11:05:43;31.00;55.40
30174;DHT22;16985;50.814;8.530;2022-08-14T11:08:11;31.10;54.60
30174;DHT22;16985;50.814;8.530;2022-08-14T11:10:43;31.30;53.60
30174;DHT22;16985;50.814;8.530;2022-08-14T11:13:18;31.40;53.60
30174;DHT22;16985;50.814;8.530;2022-08-14T11:15:46;31.50;54.30
30174;DHT22;16985;50.814;8.530;2022-08-14T11:18:17;31.50;52.30
30174;DHT22;16985;50.814;8.530;2022-08-14T11:20:51;31.60;52.20
30174;DHT22;16985;50.814;8.530;2022-08-14T11:23:26;31.50;52.20
30174;DHT22;16985;50.814;8.530;2022-08-14T11:25:57;31.30;52.80
30174;DHT22;16985;50.814;8.530;2022-08-14T11:28:25;31.10;52.90
30174;DHT22;16985;50.814;8.530;2022-08-14T11:30:53;31.00;53.40
30174;DHT22;16985;50.814;8.530;2022-08-14T11:33:24;30.90;53.50
30174;DHT22;16985;50.814;8.530;2022-08-14T11:35:55;30.90;53.60
30174;DHT22;16985;50.814;8.530;2022-08-14T11:38:25;30.90;53.80
30174;DHT22;16985;50.814;8.530;2022-08-14T11:40:55;30.90;53.80
30174;DHT22;16985;50.814;8.530;2022-08-14T11:43:22;31.10;53.90
30174;DHT22;16985;50.814;8.530;2022-08-14T11:45:50;31.20;53.80
30174;DHT22;16985;50.814;8.530;2022-08-14T11:48:19;31.20;53.10
30174;DHT22;16985;50.814;8.530;2022-08-14T11:50:49;31.20;53.10
30174;DHT22;16985;50.814;8.530;2022-08-14T11:55:46;31.40;52.40
30174;DHT22;16985;50.814;8.530;2022-08-14T11:58:15;31.60;52.40
30174;DHT22;16985;50.814;8.530;2022-08-14T12:00:49;31.70;51.50
30174;DHT22;16985;50.814;8.530;2022-08-14T12:03:18;31.80;51.30
30174;DHT22;16985;50.814;8.530;2022-08-14T12:05:49;31.90;51.10
30174;DHT22;16985;50.814;8.530;2022-08-14T12:08:16;32.00;50.80
30174;DHT22;16985;50.814;8.530;2022-08-14T12:10:42;32.20;50.10
30174;DHT22;16985;50.814;8.530;2022-08-14T12:13:17;32.30;50.10
30174;DHT22;16985;50.814;8.530;2022-08-14T12:15:55;32.50;49.30
30174;DHT22;16985;50.814;8.530;2022-08-14T12:18:33;32.70;48.80
30174;DHT22;16985;50.814;8.530;2022-08-14T12:21:30;32.90;48.20
30174;DHT22;16985;50.814;8.530;2022-08-14T12:24:05;33.00;48.20
30174;DHT22;16985;50.814;8.530;2022-08-14T12:26:32;33.10;48.00
30174;DHT22;16985;50.814;8.530;2022-08-14T12:29:12;33.30;47.60
30174;DHT22;16985;50.814;8.530;2022-08-14T12:31:39;33.40;47.10
30174;DHT22;16985;50.814;8.530;2022-08-14T12:34:11;33.50;47.20
30174;DHT22;16985;50.814;8.530;2022-08-14T12:36:39;33.60;46.70
30174;DHT22;16985;50.814;8.530;2022-08-14T12:39:17;33.80;46.30
30174;DHT22;16985;50.814;8.530;2022-08-14T12:41:49;33.80;46.10
30174;DHT22;16985;50.814;8.530;2022-08-14T12:44:17;33.60;45.90
30174;DHT22;16985;50.814;8.530;2022-08-14T12:47:25;33.60;46.20
30174;DHT22;16985;50.814;8.530;2022-08-14T12:49:53;33.60;46.70
30174;DHT22;16985;50.814;8.530;2022-08-14T12:52:39;33.60;46.20
30174;DHT22;16985;50.814;8.530;2022-08-14T12:55:13;33.70;46.10
30174;DHT22;16985;50.814;8.530;2022-08-14T12:57:43;33.80;45.20
30174;DHT22;16985;50.814;8.530;2022-08-14T13:00:14;34.00;45.20
30174;DHT22;16985;50.814;8.530;2022-08-14T13:02:48;34.00;45.10
30174;DHT22;16985;50.814;8.530;2022-08-14T13:05:21;34.20;44.60
30174;DHT22;16985;50.814;8.530;2022-08-14T13:07:50;34.30;44.10
30174;DHT22;16985;50.814;8.530;2022-08-14T13:10:18;34.40;44.00
30174;DHT22;16985;50.814;8.530;2022-08-14T13:12:48;34.50;43.10
30174;DHT22;16985;50.814;8.530;2022-08-14T13:15:16;34.60;42.90
30174;DHT22;16985;50.814;8.530;2022-08-14T13:17:47;34.50;42.40
30174;DHT22;16985;50.814;8.530;2022-08-14T13:20:20;34.60;41.90
30174;DHT22;16985;50.814;8.530;2022-08-14T13:22:48;34.60;42.20
30174;DHT22;16985;50.814;8.530;2022-08-14T13:25:26;34.60;42.20
30174;DHT22;16985;50.814;8.530;2022-08-14T13:27:54;34.60;42.50
30174;DHT22;16985;50.814;8.530;2022-08-14T13:30:23;34.60;42.70
30174;DHT22;16985;50.814;8.530;2022-08-14T13:32:51;34.70;42.90
30174;DHT22;16985;50.814;8.530;2022-08-14T13:35:20;34.80;42.80
30174;DHT22;16985;50.814;8.530;2022-08-14T13:37:47;34.90;42.50
30174;DHT22;16985;50.814;8.530;2022-08-14T13:40:18;34.90;42.20
30174;DHT22;16985;50.814;8.530;2022-08-14T13:42:46;35.00;41.80
30174;DHT22;16985;50.814;8.530;2022-08-14T13:45:14;35.10;41.80
30174;DHT22;16985;50.814;8.530;2022-08-14T13:47:41;35.20;41.40
30174;DHT22;16985;50.814;8.530;2022-08-14T13:50:10;35.20;41.50
30174;DHT22;16985;50.814;8.530;2022-08-14T13:55:06;35.30;40.70
30174;DHT22;16985;50.814;8.530;2022-08-14T13:57:34;35.30;40.50
30174;DHT22;16985;50.814;8.530;2022-08-14T14:00:08;35.30;40.30
30174;DHT22;16985;50.814;8.530;2022-08-14T14:02:42;35.30;40.30
30174;DHT22;16985;50.814;8.530;2022-08-14T14:05:13;35.30;40.40
30174;DHT22;16985;50.814;8.530;2022-08-14T14:07:44;35.30;41.00
30174;DHT22;16985;50.814;8.530;2022-08-14T14:10:11;35.30;41.30
30174;DHT22;16985;50.814;8.530;2022-08-14T14:12:38;35.30;41.50
30174;DHT22;16985;50.814;8.530;2022-08-14T14:15:16;35.40;41.80
30174;DHT22;16985;50.814;8.530;2022-08-14T14:17:43;35.40;40.80
30174;DHT22;16985;50.814;8.530;2022-08-14T14:20:14;35.50;40.70
30174;DHT22;16985;50.814;8.530;2022-08-14T14:22:45;35.50;40.70
30174;DHT22;16985;50.814;8.530;2022-08-14T14:25:14;35.40;40.80
30174;DHT22;16985;50.814;8.530;2022-08-14T14:27:42;35.40;41.00
30174;DHT22;16985;50.814;8.530;2022-08-14T14:30:11;35.50;40.70
30174;DHT22;16985;50.814;8.530;2022-08-14T14:32:40;35.50;40.80
30174;DHT22;16985;50.814;8.530;2022-08-14T14:35:11;35.50;40.70
30174;DHT22;16985;50.814;8.530;2022-08-14T14:37:42;35.60;40.50
30174;DHT22;16985;50.814;8.530;2022-08-14T14:40:09;35.60;40.40
30174;DHT22;16985;50.814;8.530;2022-08-14T14:42:48;35.60;40.30
30174;DHT22;16985;50.814;8.530;2022-08-14T14:45:18;35.70;40.40
30174;DHT22;16985;50.814;8.530;2022-08-14T14:47:50;35.70;40.00
30174;DHT22;16985;50.814;8.530;2022-08-14T14:50:18;35.70;40.00
30174;DHT22;16985;50.814;8.530;2022-08-14T14:52:48;35.60;40.00
30174;DHT22;16985;50.814;8.530;2022-08-14T14:55:16;35.60;39.80
30174;DHT22;16985;50.814;8.530;2022-08-14T14:57:43;35.60;40.00
30174;DHT22;16985;50.814;8.530;2022-08-14T15:00:18;35.60;40.00
30174;DHT22;16985;50.814;8.530;2022-08-14T15:02:47;35.40;40.20
30174;DHT22;16985;50.814;8.530;2022-08-14T15:05:16;35.30;40.30
30174;DHT22;16985;50.814;8.530;2022-08-14T15:07:43;35.10;40.60
30174;DHT22;16985;50.814;8.530;2022-08-14T15:10:12;34.90;41.00
30174;DHT22;16985;50.814;8.530;2022-08-14T15:12:39;34.70;41.00
30174;DHT22;16985;50.814;8.530;2022-08-14T15:15:06;34.50;41.60
30174;DHT22;16985;50.814;8.530;2022-08-14T15:17:32;34.30;41.30
30174;DHT22;16985;50.814;8.530;2022-08-14T15:20:06;34.10;41.50
30174;DHT22;16985;50.814;8.530;2022-08-14T15:22:36;34.00;42.30
30174;DHT22;16985;50.814;8.530;2022-08-14T15:25:05;34.00;42.50
30174;DHT22;16985;50.814;8.530;2022-08-14T15:27:31;34.00;43.10
30174;DHT22;16985;50.814;8.530;2022-08-14T15:29:58;34.00;42.60
30174;DHT22;16985;50.814;8.530;2022-08-14T15:32:23;34.10;42.00
30174;DHT22;16985;50.814;8.530;2022-08-14T15:34:50;34.10;41.80
30174;DHT22;16985;50.814;8.530;2022-08-14T15:37:16;34.30;41.60
30174;DHT22;16985;50.814;8.530;2022-08-14T15:39:41;34.30;41.40
30174;DHT22;16985;50.814;8.530;2022-08-14T15:42:08;34.30;41.40
30174;DHT22;16985;50.814;8.530;2022-08-14T15:44:35;34.30;41.60
30174;DHT22;16985;50.814;8.530;2022-08-14T15:47:01;34.30;41.10
30174;DHT22;16985;50.814;8.530;2022-08-14T15:49:31;34.20;41.30
30174;DHT22;16985;50.814;8.530;2022-08-14T15:51:57;34.10;41.30
30174;DHT22;16985;50.814;8.530;2022-08-14T15:54:27;34.00;41.30
30174;DHT22;16985;50.814;8.530;2022-08-14T15:56:58;34.00;41.60
30174;DHT22;16985;50.814;8.530;2022-08-14T15:59:26;33.80;41.30
30174;DHT22;16985;50.814;8.530;2022-08-14T16:02:12;33.60;41.30
30174;DHT22;16985;50.814;8.530;2022-08-14T16:04:38;33.40;41.50
30174;DHT22;16985;50.814;8.530;2022-08-14T16:07:04;33.20;41.60
30174;DHT22;16985;50.814;8.530;2022-08-14T16:09:30;33.10;41.90
30174;DHT22;16985;50.814;8.530;2022-08-14T16:11:56;32.90;41.80
30174;DHT22;16985;50.814;8.530;2022-08-14T16:14:22;32.70;42.10